sensor_id;sensor_type;location;lat;lon;timestamp;P1;durP1;ratioP1;P2;durP2;ratioP2
66402;SDS011;53212;52.112;5.144;2023-11-19T00:00:06;11.40;;;3.70;;
66402;SDS011;53212;52.112;5.144;2023-11-19T00:02:38;11.40;;;3.30;;
66402;SDS011;53212;52.112;5.144;2023-11-19T00:05:04;13.50;;;3.60;;
66402;SDS011;53212;52.112;5.144;2023-11-19T00:07:31;12.80;;;3.80;;
66402;SDS011;53212;52.112;5.144;2023-11-19T00:09:57;15.00;;;3.60;;
66402;SDS011;53212;52.112;5.144;2023-11-19T00:12:22;10.40;;;3.20;;
66402;SDS011;53212;52.112;5.144;2023-11-19T00:14:48;13.50;;;3.20;;
66402;SDS011;53212;52.112;5.144;2023-11-19T00:17:13;15.10;;;4.10;;
66402;SDS011;53212;52.112;5.144;2023-11-19T00:19:38;13.60;;;3.90;;
66402;SDS011;53212;52.112;5.144;2023-11-19T00:22:04;15.10;;;3.80;;
66402;SDS011;53212;52.112;5.144;2023-11-19T00:24:30;12.40;;;2.70;;
66402;SDS011;53212;52.112;5.144;2023-11-19T00:26:56;14.40;;;3.60;;
66402;SDS011;53212;52.112;5.144;2023-11-19T00:29:21;20.10;;;4.30;;
66402;SDS011;53212;52.112;5.144;2023-11-19T00:31:47;20.90;;;4.70;;
66402;SDS011;53212;52.112;5.144;2023-11-19T00:34:13;16.10;;;3.90;;
66402;SDS011;53212;52.112;5.144;2023-11-19T00:36:38;16.40;;;4.90;;
66402;SDS011;53212;52.112;5.144;2023-11-19T00:39:04;19.30;;;4.70;;
66402;SDS011;53212;52.112;5.144;2023-11-19T00:41:30;17.80;;;4.50;;
66402;SDS011;53212;52.112;5.144;2023-11-19T00:43:56;19.80;;;4.50;;
66402;SDS011;53212;52.112;5.144;2023-11-19T00:46:21;21.50;;;4.90;;
66402;SDS011;53212;52.112;5.144;2023-11-19T00:48:47;13.90;;;3.60;;
66402;SDS011;53212;52.112;5.144;2023-11-19T00:51:12;16.20;;;4.60;;
66402;SDS011;53212;52.112;5.144;2023-11-19T00:53:38;18.50;;;4.90;;
66402;SDS011;53212;52.112;5.144;2023-11-19T00:56:03;24.30;;;5.50;;
66402;SDS011;53212;52.112;5.144;2023-11-19T00:58:29;19.20;;;4.40;;
66402;SDS011;53212;52.112;5.144;2023-11-19T01:00:54;19.90;;;4.40;;
66402;SDS011;53212;52.112;5.144;2023-11-19T01:03:22;24.80;;;5.40;;
66402;SDS011;53212;52.112;5.144;2023-11-19T01:05:47;18.10;;;5.10;;
66402;SDS011;53212;52.112;5.144;2023-11-19T01:08:13;21.10;;;4.90;;
66402;SDS011;53212;52.112;5.144;2023-11-19T01:10:39;18.10;;;4.60;;
66402;SDS011;53212;52.112;5.144;2023-11-19T01:13:05;21.20;;;4.80;;
66402;SDS011;53212;52.112;5.144;2023-11-19T01:15:32;25.30;;;5.00;;
66402;SDS011;53212;52.112;5.144;2023-11-19T01:17:58;21.30;;;4.90;;
66402;SDS011;53212;52.112;5.144;2023-11-19T01:20:23;23.50;;;5.40;;
66402;SDS011;53212;52.112;5.144;2023-11-19T01:22:50;19.20;;;4.90;;
66402;SDS011;53212;52.112;5.144;2023-11-19T01:25:16;30.40;;;6.90;;
66402;SDS011;53212;52.112;5.144;2023-11-19T01:27:41;22.30;;;5.20;;
66402;SDS011;53212;52.112;5.144;2023-11-19T01:30:07;21.30;;;4.70;;
66402;SDS011;53212;52.112;5.144;2023-11-19T01:32:35;26.90;;;5.10;;
66402;SDS011;53212;52.112;5.144;2023-11-19T01:35:02;19.90;;;5.00;;
66402;SDS011;53212;52.112;5.144;2023-11-19T01:37:29;23.50;;;6.00;;
66402;SDS011;53212;52.112;5.144;2023-11-19T01:39:55;27.90;;;6.90;;
66402;SDS011;53212;52.112;5.144;2023-11-19T01:42:20;28.80;;;6.50;;
66402;SDS011;53212;52.112;5.144;2023-11-19T01:45:04;24.20;;;5.40;;
66402;SDS011;53212;52.112;5.144;2023-11-19T01:47:32;24.80;;;6.50;;
66402;SDS011;53212;52.112;5.144;2023-11-19T01:49:58;30.30;;;5.70;;
66402;SDS011;53212;52.112;5.144;2023-11-19T01:52:24;26.90;;;5.40;;
66402;SDS011;53212;52.112;5.144;2023-11-19T01:54:52;23.00;;;5.90;;
66402;SDS011;53212;52.112;5.144;2023-11-19T01:57:19;28.80;;;7.00;;
66402;SDS011;53212;52.112;5.144;2023-11-19T01:59:47;26.00;;;5.50;;
66402;SDS011;53212;52.112;5.144;2023-11-19T02:02:12;30.30;;;6.70;;
66402;SDS011;53212;52.112;5.144;2023-11-19T02:04:38;27.50;;;6.70;;
66402;SDS011;53212;52.112;5.144;2023-11-19T02:07:03;22.20;;;6.00;;
66402;SDS011;53212;52.112;5.144;2023-11-19T02:09:29;31.00;;;6.10;;
66402;SDS011;53212;52.112;5.144;2023-11-19T02:11:55;32.60;;;7.20;;
66402;SDS011;53212;52.112;5.144;2023-11-19T02:14:24;31.30;;;6.70;;
66402;SDS011;53212;52.112;5.144;2023-11-19T02:16:51;30.70;;;6.20;;
66402;SDS011;53212;52.112;5.144;2023-11-19T02:19:20;23.00;;;6.00;;
66402;SDS011;53212;52.112;5.144;2023-11-19T02:21:45;26.60;;;6.40;;
66402;SDS011;53212;52.112;5.144;2023-11-19T02:24:11;32.90;;;7.20;;
66402;SDS011;53212;52.112;5.144;2023-11-19T02:26:48;31.70;;;6.30;;
66402;SDS011;53212;52.112;5.144;2023-11-19T02:29:27;32.60;;;6.90;;
66402;SDS011;53212;52.112;5.144;2023-11-19T02:31:53;30.80;;;6.50;;
66402;SDS011;53212;52.112;5.144;2023-11-19T02:34:20;27.40;;;6.40;;
66402;SDS011;53212;52.112;5.144;2023-11-19T02:36:47;38.60;;;7.40;;
66402;SDS011;53212;52.112;5.144;2023-11-19T02:39:12;32.50;;;7.60;;
66402;SDS011;53212;52.112;5.144;2023-11-19T02:41:38;30.70;;;7.00;;
66402;SDS011;53212;52.112;5.144;2023-11-19T02:44:06;31.00;;;6.50;;
66402;SDS011;53212;52.112;5.144;2023-11-19T02:46:32;29.70;;;7.20;;
66402;SDS011;53212;52.112;5.144;2023-11-19T02:48:57;30.00;;;7.30;;
66402;SDS011;53212;52.112;5.144;2023-11-19T02:51:23;32.90;;;7.70;;
66402;SDS011;53212;52.112;5.144;2023-11-19T02:53:48;32.50;;;6.80;;
66402;SDS011;53212;52.112;5.144;2023-11-19T02:56:14;27.30;;;6.50;;
66402;SDS011;53212;52.112;5.144;2023-11-19T02:58:59;35.70;;;6.40;;
66402;SDS011;53212;52.112;5.144;2023-11-19T03:01:32;30.30;;;7.20;;
66402;SDS011;53212;52.112;5.144;2023-11-19T03:04:00;33.50;;;6.50;;
66402;SDS011;53212;52.112;5.144;2023-11-19T03:06:26;32.70;;;7.00;;
66402;SDS011;53212;52.112;5.144;2023-11-19T03:08:54;30.00;;;6.10;;
66402;SDS011;53212;52.112;5.144;2023-11-19T03:11:20;27.20;;;6.00;;
66402;SDS011;53212;52.112;5.144;2023-11-19T03:13:46;34.60;;;7.30;;
66402;SDS011;53212;52.112;5.144;2023-11-19T03:16:12;29.50;;;7.80;;
66402;SDS011;53212;52.112;5.144;2023-11-19T03:18:38;26.30;;;6.30;;
66402;SDS011;53212;52.112;5.144;2023-11-19T03:21:06;30.80;;;7.10;;
66402;SDS011;53212;52.112;5.144;2023-11-19T03:23:33;30.00;;;7.00;;
66402;SDS011;53212;52.112;5.144;2023-11-19T03:25:58;30.50;;;7.30;;
66402;SDS011;53212;52.112;5.144;2023-11-19T03:28:24;34.60;;;7.10;;
66402;SDS011;53212;52.112;5.144;2023-11-19T03:30:50;34.50;;;8.90;;
66402;SDS011;53212;52.112;5.144;2023-11-19T03:33:15;38.00;;;8.00;;
66402;SDS011;53212;52.112;5.144;2023-11-19T03:35:40;33.10;;;6.90;;
66402;SDS011;53212;52.112;5.144;2023-11-19T03:38:06;29.00;;;7.00;;
66402;SDS011;53212;52.112;5.144;2023-11-19T03:40:32;35.60;;;7.70;;
66402;SDS011;53212;52.112;5.144;2023-11-19T03:42:57;31.50;;;8.60;;
66402;SDS011;53212;52.112;5.144;2023-11-19T03:45:24;35.40;;;8.30;;
66402;SDS011;53212;52.112;5.144;2023-11-19T03:47:50;32.00;;;7.30;;
66402;SDS011;53212;52.112;5.144;2023-11-19T03:50:16;31.40;;;7.60;;
66402;SDS011;53212;52.112;5.144;2023-11-19T03:52:41;41.30;;;8.00;;
66402;SDS011;53212;52.112;5.144;2023-11-19T03:55:07;30.30;;;6.60;;
66402;SDS011;53212;52.112;5.144;2023-11-19T03:57:34;33.70;;;7.50;;
66402;SDS011;53212;52.112;5.144;2023-11-19T04:00:00;41.30;;;9.00;;
66402;SDS011;53212;52.112;5.144;2023-11-19T04:02:32;35.70;;;7.30;;
66402;SDS011;53212;52.112;5.144;2023-11-19T04:04:57;38.70;;;7.50;;
66402;SDS011;53212;52.112;5.144;2023-11-19T04:07:23;34.30;;;8.90;;
66402;SDS011;53212;52.112;5.144;2023-11-19T04:09:48;35.00;;;8.80;;
66402;SDS011;53212;52.112;5.144;2023-11-19T04:12:14;36.70;;;7.10;;
66402;SDS011;53212;52.112;5.144;2023-11-19T04:14:39;30.30;;;7.40;;
66402;SDS011;53212;52.112;5.144;2023-11-19T04:17:05;41.40;;;8.30;;
66402;SDS011;53212;52.112;5.144;2023-11-19T04:19:31;33.30;;;7.50;;
66402;SDS011;53212;52.112;5.144;2023-11-19T04:21:58;38.80;;;7.90;;
66402;SDS011;53212;52.112;5.144;2023-11-19T04:24:23;35.00;;;7.80;;
66402;SDS011;53212;52.112;5.144;2023-11-19T04:26:49;36.40;;;7.70;;
66402;SDS011;53212;52.112;5.144;2023-11-19T04:29:16;37.40;;;8.80;;
66402;SDS011;53212;52.112;5.144;2023-11-19T04:31:43;38.00;;;8.70;;
66402;SDS011;53212;52.112;5.144;2023-11-19T04:34:12;44.20;;;9.00;;
66402;SDS011;53212;52.112;5.144;2023-11-19T04:36:37;37.60;;;8.20;;
66402;SDS011;53212;52.112;5.144;2023-11-19T04:39:03;30.90;;;7.40;;
66402;SDS011;53212;52.112;5.144;2023-11-19T04:41:50;35.60;;;8.30;;
66402;SDS011;53212;52.112;5.144;2023-11-19T04:44:20;38.80;;;8.40;;
66402;SDS011;53212;52.112;5.144;2023-11-19T04:46:46;33.30;;;8.30;;
66402;SDS011;53212;52.112;5.144;2023-11-19T04:49:12;33.60;;;7.60;;
66402;SDS011;53212;52.112;5.144;2023-11-19T04:51:40;34.60;;;8.50;;
66402;SDS011;53212;52.112;5.144;2023-11-19T04:54:09;29.10;;;6.90;;
66402;SDS011;53212;52.112;5.144;2023-11-19T04:56:36;33.70;;;7.20;;
66402;SDS011;53212;52.112;5.144;2023-11-19T04:59:02;30.70;;;6.90;;
66402;SDS011;53212;52.112;5.144;2023-11-19T05:01:29;29.70;;;7.00;;
66402;SDS011;53212;52.112;5.144;2023-11-19T05:03:55;36.40;;;8.50;;
66402;SDS011;53212;52.112;5.144;2023-11-19T05:06:26;31.80;;;7.00;;
66402;SDS011;53212;52.112;5.144;2023-11-19T05:08:53;31.50;;;8.60;;
66402;SDS011;53212;52.112;5.144;2023-11-19T05:11:19;31.90;;;7.80;;
66402;SDS011;53212;52.112;5.144;2023-11-19T05:13:45;29.70;;;6.60;;
66402;SDS011;53212;52.112;5.144;2023-11-19T05:16:10;35.30;;;7.80;;
66402;SDS011;53212;52.112;5.144;2023-11-19T05:18:39;30.60;;;6.40;;
66402;SDS011;53212;52.112;5.144;2023-11-19T05:21:05;34.70;;;7.20;;
66402;SDS011;53212;52.112;5.144;2023-11-19T05:23:32;30.50;;;6.30;;
66402;SDS011;53212;52.112;5.144;2023-11-19T05:25:59;34.00;;;6.80;;
66402;SDS011;53212;52.112;5.144;2023-11-19T05:28:25;34.70;;;7.00;;
66402;SDS011;53212;52.112;5.144;2023-11-19T05:30:51;38.40;;;8.80;;
66402;SDS011;53212;52.112;5.144;2023-11-19T05:33:16;36.40;;;7.80;;
66402;SDS011;53212;52.112;5.144;2023-11-19T05:35:42;32.40;;;7.30;;
66402;SDS011;53212;52.112;5.144;2023-11-19T05:38:07;32.10;;;6.60;;
66402;SDS011;53212;52.112;5.144;2023-11-19T05:40:34;34.40;;;8.00;;
66402;SDS011;53212;52.112;5.144;2023-11-19T05:43:00;31.30;;;6.70;;
66402;SDS011;53212;52.112;5.144;2023-11-19T05:45:25;29.80;;;6.90;;
66402;SDS011;53212;52.112;5.144;2023-11-19T05:47:51;34.50;;;7.90;;
66402;SDS011;53212;52.112;5.144;2023-11-19T05:50:17;30.40;;;6.90;;
66402;SDS011;53212;52.112;5.144;2023-11-19T05:52:43;26.50;;;6.60;;
66402;SDS011;53212;52.112;5.144;2023-11-19T05:55:08;32.90;;;7.50;;
66402;SDS011;53212;52.112;5.144;2023-11-19T05:57:37;33.40;;;7.40;;
66402;SDS011;53212;52.112;5.144;2023-11-19T06:00:03;35.50;;;7.50;;
66402;SDS011;53212;52.112;5.144;2023-11-19T06:02:34;31.80;;;7.20;;
66402;SDS011;53212;52.112;5.144;2023-11-19T06:05:00;33.30;;;7.60;;
66402;SDS011;53212;52.112;5.144;2023-11-19T06:07:27;33.80;;;7.10;;
66402;SDS011;53212;52.112;5.144;2023-11-19T06:09:53;39.50;;;8.20;;
66402;SDS011;53212;52.112;5.144;2023-11-19T06:12:18;36.40;;;7.40;;
66402;SDS011;53212;52.112;5.144;2023-11-19T06:14:43;34.70;;;7.20;;
66402;SDS011;53212;52.112;5.144;2023-11-19T06:17:09;35.50;;;7.10;;
66402;SDS011;53212;52.112;5.144;2023-11-19T06:19:36;36.10;;;7.90;;
66402;SDS011;53212;52.112;5.144;2023-11-19T06:22:03;36.20;;;7.20;;
66402;SDS011;53212;52.112;5.144;2023-11-19T06:24:29;31.10;;;6.90;;
66402;SDS011;53212;52.112;5.144;2023-11-19T06:26:54;36.00;;;7.50;;
66402;SDS011;53212;52.112;5.144;2023-11-19T06:29:20;33.90;;;7.70;;
66402;SDS011;53212;52.112;5.144;2023-11-19T06:31:45;36.00;;;7.90;;
66402;SDS011;53212;52.112;5.144;2023-11-19T06:34:13;32.80;;;7.50;;
66402;SDS011;53212;52.112;5.144;2023-11-19T06:36:39;38.70;;;8.10;;
66402;SDS011;53212;52.112;5.144;2023-11-19T06:39:05;28.80;;;6.50;;
66402;SDS011;53212;52.112;5.144;2023-11-19T06:41:31;36.70;;;8.30;;
66402;SDS011;53212;52.112;5.144;2023-11-19T06:43:56;28.70;;;7.70;;
66402;SDS011;53212;52.112;5.144;2023-11-19T06:46:22;35.00;;;8.10;;
66402;SDS011;53212;52.112;5.144;2023-11-19T06:48:47;34.30;;;7.30;;
66402;SDS011;53212;52.112;5.144;2023-11-19T06:51:13;31.40;;;7.50;;
66402;SDS011;53212;52.112;5.144;2023-11-19T06:53:38;31.50;;;6.80;;
66402;SDS011;53212;52.112;5.144;2023-11-19T06:56:23;39.40;;;8.50;;
66402;SDS011;53212;52.112;5.144;2023-11-19T06:58:50;32.60;;;7.60;;
66402;SDS011;53212;52.112;5.144;2023-11-19T07:01:16;29.00;;;7.30;;
66402;SDS011;53212;52.112;5.144;2023-11-19T07:03:44;35.50;;;6.80;;
66402;SDS011;53212;52.112;5.144;2023-11-19T07:06:11;32.60;;;7.00;;
66402;SDS011;53212;52.112;5.144;2023-11-19T07:08:38;32.60;;;7.60;;
66402;SDS011;53212;52.112;5.144;2023-11-19T07:11:04;35.70;;;7.10;;
66402;SDS011;53212;52.112;5.144;2023-11-19T07:13:30;28.90;;;6.70;;
66402;SDS011;53212;52.112;5.144;2023-11-19T07:15:58;35.00;;;7.40;;
66402;SDS011;53212;52.112;5.144;2023-11-19T07:18:23;27.10;;;6.60;;
66402;SDS011;53212;52.112;5.144;2023-11-19T07:20:50;33.70;;;7.20;;
66402;SDS011;53212;52.112;5.144;2023-11-19T07:23:15;25.40;;;6.20;;
66402;SDS011;53212;52.112;5.144;2023-11-19T07:25:43;36.10;;;8.10;;
66402;SDS011;53212;52.112;5.144;2023-11-19T07:28:12;35.90;;;7.10;;
66402;SDS011;53212;52.112;5.144;2023-11-19T07:30:39;27.20;;;6.30;;
66402;SDS011;53212;52.112;5.144;2023-11-19T07:33:05;34.20;;;7.40;;
66402;SDS011;53212;52.112;5.144;2023-11-19T07:35:31;28.40;;;6.80;;
66402;SDS011;53212;52.112;5.144;2023-11-19T07:37:57;33.00;;;8.50;;
66402;SDS011;53212;52.112;5.144;2023-11-19T07:40:23;33.70;;;7.30;;
66402;SDS011;53212;52.112;5.144;2023-11-19T07:42:49;25.80;;;5.90;;
66402;SDS011;53212;52.112;5.144;2023-11-19T07:45:16;32.60;;;7.80;;
66402;SDS011;53212;52.112;5.144;2023-11-19T07:47:42;36.70;;;7.60;;
66402;SDS011;53212;52.112;5.144;2023-11-19T07:50:10;34.40;;;6.50;;
66402;SDS011;53212;52.112;5.144;2023-11-19T07:52:37;34.90;;;7.40;;
66402;SDS011;53212;52.112;5.144;2023-11-19T07:55:02;36.60;;;8.60;;
66402;SDS011;53212;52.112;5.144;2023-11-19T07:57:28;33.80;;;7.80;;
66402;SDS011;53212;52.112;5.144;2023-11-19T07:59:56;36.40;;;7.00;;
66402;SDS011;53212;52.112;5.144;2023-11-19T08:02:26;28.10;;;7.10;;
66402;SDS011;53212;52.112;5.144;2023-11-19T08:04:52;36.70;;;7.60;;
66402;SDS011;53212;52.112;5.144;2023-11-19T08:07:18;33.30;;;8.00;;
66402;SDS011;53212;52.112;5.144;2023-11-19T08:09:44;40.20;;;7.90;;
66402;SDS011;53212;52.112;5.144;2023-11-19T08:12:10;32.70;;;7.20;;
66402;SDS011;53212;52.112;5.144;2023-11-19T08:14:35;35.50;;;7.40;;
66402;SDS011;53212;52.112;5.144;2023-11-19T08:17:02;34.10;;;7.50;;
66402;SDS011;53212;52.112;5.144;2023-11-19T08:19:28;34.20;;;8.00;;
66402;SDS011;53212;52.112;5.144;2023-11-19T08:21:54;31.70;;;8.00;;
66402;SDS011;53212;52.112;5.144;2023-11-19T08:24:19;35.30;;;8.00;;
66402;SDS011;53212;52.112;5.144;2023-11-19T08:26:44;33.90;;;7.80;;
66402;SDS011;53212;52.112;5.144;2023-11-19T08:29:10;34.00;;;8.40;;
66402;SDS011;53212;52.112;5.144;2023-11-19T08:31:35;35.40;;;8.20;;
66402;SDS011;53212;52.112;5.144;2023-11-19T08:34:01;35.50;;;8.90;;
66402;SDS011;53212;52.112;5.144;2023-11-19T08:36:26;24.10;;;6.80;;
66402;SDS011;53212;52.112;5.144;2023-11-19T08:38:53;31.90;;;7.20;;
66402;SDS011;53212;52.112;5.144;2023-11-19T08:41:19;36.60;;;8.20;;
66402;SDS011;53212;52.112;5.144;2023-11-19T08:43:46;35.30;;;7.30;;
66402;SDS011;53212;52.112;5.144;2023-11-19T08:46:12;36.00;;;8.80;;
66402;SDS011;53212;52.112;5.144;2023-11-19T08:48:38;31.50;;;7.00;;
66402;SDS011;53212;52.112;5.144;2023-11-19T08:51:03;26.10;;;6.30;;
66402;SDS011;53212;52.112;5.144;2023-11-19T08:53:29;31.60;;;7.60;;
66402;SDS011;53212;52.112;5.144;2023-11-19T08:55:55;27.70;;;6.60;;
66402;SDS011;53212;52.112;5.144;2023-11-19T08:58:20;28.80;;;6.60;;
66402;SDS011;53212;52.112;5.144;2023-11-19T09:00:46;41.20;;;8.00;;
66402;SDS011;53212;52.112;5.144;2023-11-19T09:03:12;28.60;;;7.20;;
66402;SDS011;53212;52.112;5.144;2023-11-19T09:05:37;25.40;;;6.20;;
66402;SDS011;53212;52.112;5.144;2023-11-19T09:08:03;30.00;;;7.30;;
66402;SDS011;53212;52.112;5.144;2023-11-19T09:10:29;31.80;;;7.20;;
66402;SDS011;53212;52.112;5.144;2023-11-19T09:12:55;31.70;;;7.60;;
66402;SDS011;53212;52.112;5.144;2023-11-19T09:15:20;36.00;;;7.10;;
66402;SDS011;53212;52.112;5.144;2023-11-19T09:17:46;31.60;;;6.60;;
66402;SDS011;53212;52.112;5.144;2023-11-19T09:20:11;27.60;;;7.10;;
66402;SDS011;53212;52.112;5.144;2023-11-19T09:22:40;30.90;;;7.10;;
66402;SDS011;53212;52.112;5.144;2023-11-19T09:25:05;36.70;;;7.80;;
66402;SDS011;53212;52.112;5.144;2023-11-19T09:27:31;32.00;;;7.50;;
66402;SDS011;53212;52.112;5.144;2023-11-19T09:29:56;36.00;;;7.90;;
66402;SDS011;53212;52.112;5.144;2023-11-19T09:32:23;31.20;;;6.60;;
66402;SDS011;53212;52.112;5.144;2023-11-19T09:34:49;29.70;;;7.80;;
66402;SDS011;53212;52.112;5.144;2023-11-19T09:37:15;32.20;;;7.70;;
66402;SDS011;53212;52.112;5.144;2023-11-19T09:39:40;35.90;;;7.20;;
66402;SDS011;53212;52.112;5.144;2023-11-19T09:42:09;30.70;;;7.30;;
66402;SDS011;53212;52.112;5.144;2023-11-19T09:44:36;27.80;;;5.90;;
66402;SDS011;53212;52.112;5.144;2023-11-19T09:47:04;34.20;;;7.20;;
66402;SDS011;53212;52.112;5.144;2023-11-19T09:49:29;31.60;;;7.50;;
66402;SDS011;53212;52.112;5.144;2023-11-19T09:51:55;30.30;;;6.60;;
66402;SDS011;53212;52.112;5.144;2023-11-19T09:54:21;29.10;;;6.80;;
66402;SDS011;53212;52.112;5.144;2023-11-19T09:56:46;30.40;;;6.40;;
66402;SDS011;53212;52.112;5.144;2023-11-19T09:59:13;35.00;;;7.80;;
66402;SDS011;53212;52.112;5.144;2023-11-19T10:01:39;31.20;;;7.00;;
66402;SDS011;53212;52.112;5.144;2023-11-19T10:04:05;30.70;;;7.20;;
66402;SDS011;53212;52.112;5.144;2023-11-19T10:06:32;30.90;;;6.70;;
66402;SDS011;53212;52.112;5.144;2023-11-19T10:08:57;23.80;;;6.10;;
66402;SDS011;53212;52.112;5.144;2023-11-19T10:11:24;25.50;;;6.10;;
66402;SDS011;53212;52.112;5.144;2023-11-19T10:13:51;28.80;;;6.20;;
66402;SDS011;53212;52.112;5.144;2023-11-19T10:16:17;29.10;;;6.50;;
66402;SDS011;53212;52.112;5.144;2023-11-19T10:18:45;21.60;;;6.40;;
66402;SDS011;53212;52.112;5.144;2023-11-19T10:21:14;28.70;;;7.10;;
66402;SDS011;53212;52.112;5.144;2023-11-19T10:23:48;29.50;;;6.70;;
66402;SDS011;53212;52.112;5.144;2023-11-19T10:26:14;25.60;;;5.80;;
66402;SDS011;53212;52.112;5.144;2023-11-19T10:28:40;23.80;;;6.20;;
66402;SDS011;53212;52.112;5.144;2023-11-19T10:31:09;23.30;;;5.80;;
66402;SDS011;53212;52.112;5.144;2023-11-19T10:33:38;23.90;;;6.00;;
66402;SDS011;53212;52.112;5.144;2023-11-19T10:36:04;26.20;;;6.00;;
66402;SDS011;53212;52.112;5.144;2023-11-19T10:38:30;24.70;;;5.70;;
66402;SDS011;53212;52.112;5.144;2023-11-19T10:40:55;25.00;;;6.20;;
66402;SDS011;53212;52.112;5.144;2023-11-19T10:43:22;23.90;;;6.50;;
66402;SDS011;53212;52.112;5.144;2023-11-19T10:45:48;29.40;;;6.90;;
66402;SDS011;53212;52.112;5.144;2023-11-19T10:48:14;29.70;;;6.20;;
66402;SDS011;53212;52.112;5.144;2023-11-19T10:50:41;27.80;;;6.30;;
66402;SDS011;53212;52.112;5.144;2023-11-19T10:53:10;27.20;;;6.30;;
66402;SDS011;53212;52.112;5.144;2023-11-19T10:55:39;21.20;;;5.40;;
66402;SDS011;53212;52.112;5.144;2023-11-19T10:58:08;28.50;;;6.50;;
66402;SDS011;53212;52.112;5.144;2023-11-19T11:00:45;28.60;;;6.20;;
66402;SDS011;53212;52.112;5.144;2023-11-19T11:05:42;29.80;;;6.50;;
66402;SDS011;53212;52.112;5.144;2023-11-19T11:08:09;29.60;;;7.70;;
66402;SDS011;53212;52.112;5.144;2023-11-19T11:10:39;24.30;;;5.80;;
66402;SDS011;53212;52.112;5.144;2023-11-19T11:13:09;19.30;;;5.20;;
66402;SDS011;53212;52.112;5.144;2023-11-19T11:15:35;19.40;;;5.60;;
66402;SDS011;53212;52.112;5.144;2023-11-19T11:18:02;26.30;;;5.70;;
66402;SDS011;53212;52.112;5.144;2023-11-19T11:20:31;24.80;;;5.50;;
66402;SDS011;53212;52.112;5.144;2023-11-19T11:31:25;23.90;;;5.60;;
66402;SDS011;53212;52.112;5.144;2023-11-19T11:37:14;25.30;;;6.00;;
66402;SDS011;53212;52.112;5.144;2023-11-19T11:39:46;26.60;;;6.40;;
66402;SDS011;53212;52.112;5.144;2023-11-19T11:45:07;22.40;;;6.00;;
66402;SDS011;53212;52.112;5.144;2023-11-19T11:50:12;28.00;;;6.10;;
66402;SDS011;53212;52.112;5.144;2023-11-19T11:57:52;25.00;;;6.00;;
66402;SDS011;53212;52.112;5.144;2023-11-19T12:00:27;23.10;;;5.50;;
66402;SDS011;53212;52.112;5.144;2023-11-19T12:02:56;25.90;;;6.10;;
66402;SDS011;53212;52.112;5.144;2023-11-19T12:05:22;25.90;;;5.70;;
66402;SDS011;53212;52.112;5.144;2023-11-19T12:07:55;22.00;;;5.10;;
66402;SDS011;53212;52.112;5.144;2023-11-19T12:10:24;19.70;;;5.90;;
66402;SDS011;53212;52.112;5.144;2023-11-19T12:12:52;27.90;;;6.00;;
66402;SDS011;53212;52.112;5.144;2023-11-19T12:15:18;21.90;;;6.00;;
66402;SDS011;53212;52.112;5.144;2023-11-19T12:17:51;25.20;;;5.80;;
66402;SDS011;53212;52.112;5.144;2023-11-19T12:20:20;23.90;;;5.40;;
66402;SDS011;53212;52.112;5.144;2023-11-19T12:22:47;21.80;;;5.80;;
66402;SDS011;53212;52.112;5.144;2023-11-19T12:25:14;22.30;;;5.40;;
66402;SDS011;53212;52.112;5.144;2023-11-19T12:27:49;26.40;;;5.90;;
66402;SDS011;53212;52.112;5.144;2023-11-19T12:30:25;21.40;;;6.10;;
66402;SDS011;53212;52.112;5.144;2023-11-19T12:32:51;18.30;;;4.50;;
66402;SDS011;53212;52.112;5.144;2023-11-19T12:35:21;19.20;;;4.60;;
66402;SDS011;53212;52.112;5.144;2023-11-19T12:37:48;16.50;;;4.30;;
66402;SDS011;53212;52.112;5.144;2023-11-19T12:40:17;21.70;;;5.10;;
66402;SDS011;53212;52.112;5.144;2023-11-19T12:42:47;17.60;;;4.60;;
66402;SDS011;53212;52.112;5.144;2023-11-19T12:45:14;18.00;;;4.70;;
66402;SDS011;53212;52.112;5.144;2023-11-19T12:47:41;19.70;;;5.10;;
66402;SDS011;53212;52.112;5.144;2023-11-19T12:50:07;22.20;;;4.70;;
66402;SDS011;53212;52.112;5.144;2023-11-19T12:52:35;18.40;;;4.60;;
66402;SDS011;53212;52.112;5.144;2023-11-19T12:55:02;16.60;;;4.60;;
66402;SDS011;53212;52.112;5.144;2023-11-19T12:57:49;16.90;;;4.30;;
66402;SDS011;53212;52.112;5.144;2023-11-19T13:00:25;17.00;;;5.10;;
66402;SDS011;53212;52.112;5.144;2023-11-19T13:02:53;15.50;;;4.80;;
66402;SDS011;53212;52.112;5.144;2023-11-19T13:05:30;17.00;;;4.70;;
66402;SDS011;53212;52.112;5.144;2023-11-19T13:08:07;20.30;;;4.70;;
66402;SDS011;53212;52.112;5.144;2023-11-19T13:10:50;20.80;;;4.60;;
66402;SDS011;53212;52.112;5.144;2023-11-19T13:13:17;19.60;;;4.80;;
66402;SDS011;53212;52.112;5.144;2023-11-19T13:15:42;20.80;;;4.60;;
66402;SDS011;53212;52.112;5.144;2023-11-19T13:18:10;22.20;;;4.90;;
66402;SDS011;53212;52.112;5.144;2023-11-19T13:20:36;21.90;;;5.80;;
66402;SDS011;53212;52.112;5.144;2023-11-19T13:23:03;23.60;;;4.90;;
66402;SDS011;53212;52.112;5.144;2023-11-19T13:25:30;22.00;;;5.90;;
66402;SDS011;53212;52.112;5.144;2023-11-19T13:27:59;23.10;;;5.90;;
66402;SDS011;53212;52.112;5.144;2023-11-19T13:30:25;16.50;;;5.40;;
66402;SDS011;53212;52.112;5.144;2023-11-19T13:32:52;22.00;;;5.40;;
66402;SDS011;53212;52.112;5.144;2023-11-19T13:35:19;24.80;;;5.50;;
66402;SDS011;53212;52.112;5.144;2023-11-19T13:37:45;21.20;;;5.10;;
66402;SDS011;53212;52.112;5.144;2023-11-19T13:40:11;13.70;;;4.80;;
66402;SDS011;53212;52.112;5.144;2023-11-19T13:42:41;23.10;;;5.10;;
66402;SDS011;53212;52.112;5.144;2023-11-19T13:45:08;24.50;;;5.60;;
66402;SDS011;53212;52.112;5.144;2023-11-19T13:47:42;24.90;;;5.60;;
66402;SDS011;53212;52.112;5.144;2023-11-19T13:52:37;24.70;;;5.20;;
66402;SDS011;53212;52.112;5.144;2023-11-19T13:55:08;19.80;;;5.00;;
66402;SDS011;53212;52.112;5.144;2023-11-19T13:57:35;26.20;;;5.90;;
66402;SDS011;53212;52.112;5.144;2023-11-19T14:00:03;21.10;;;4.80;;
66402;SDS011;53212;52.112;5.144;2023-11-19T14:02:36;29.20;;;5.50;;
66402;SDS011;53212;52.112;5.144;2023-11-19T14:05:01;25.30;;;5.60;;
66402;SDS011;53212;52.112;5.144;2023-11-19T14:07:27;19.20;;;5.80;;
66402;SDS011;53212;52.112;5.144;2023-11-19T14:09:53;19.90;;;5.00;;
66402;SDS011;53212;52.112;5.144;2023-11-19T14:12:19;22.00;;;4.30;;
66402;SDS011;53212;52.112;5.144;2023-11-19T14:14:44;21.80;;;5.30;;
66402;SDS011;53212;52.112;5.144;2023-11-19T14:17:10;25.90;;;5.40;;
66402;SDS011;53212;52.112;5.144;2023-11-19T14:19:36;23.60;;;5.30;;
66402;SDS011;53212;52.112;5.144;2023-11-19T14:22:04;21.30;;;4.80;;
66402;SDS011;53212;52.112;5.144;2023-11-19T14:24:30;21.20;;;5.40;;
66402;SDS011;53212;52.112;5.144;2023-11-19T14:26:55;24.50;;;5.60;;
66402;SDS011;53212;52.112;5.144;2023-11-19T14:29:24;23.40;;;4.80;;
66402;SDS011;53212;52.112;5.144;2023-11-19T14:31:54;20.80;;;4.90;;
66402;SDS011;53212;52.112;5.144;2023-11-19T14:34:20;22.10;;;5.80;;
66402;SDS011;53212;52.112;5.144;2023-11-19T14:36:46;20.80;;;4.60;;
66402;SDS011;53212;52.112;5.144;2023-11-19T14:39:12;21.50;;;5.40;;
66402;SDS011;53212;52.112;5.144;2023-11-19T14:41:38;16.10;;;4.70;;
66402;SDS011;53212;52.112;5.144;2023-11-19T14:44:04;21.60;;;5.50;;
66402;SDS011;53212;52.112;5.144;2023-11-19T14:46:31;23.00;;;5.40;;
66402;SDS011;53212;52.112;5.144;2023-11-19T14:48:56;27.20;;;5.70;;
66402;SDS011;53212;52.112;5.144;2023-11-19T14:51:22;19.20;;;4.80;;
66402;SDS011;53212;52.112;5.144;2023-11-19T14:53:47;27.80;;;5.70;;
66402;SDS011;53212;52.112;5.144;2023-11-19T14:56:13;23.20;;;5.00;;
66402;SDS011;53212;52.112;5.144;2023-11-19T14:58:39;20.30;;;5.50;;